Terminal Aerodrome Forecast
Issued by NWS Upton, NY

Home | Current Version | Previous Version | Text Only | Print | Product List | Glossary On
Versions: 1 2 3 4 5 6 7 8 9 10 11 12 13 14 15 16 17 18 19 20 21 22 23 24 25 26 27 28 29 30
000
FTUS41 KOKX 230833 AAA
TAFLGA
TAF AMD
KLGA 230833Z 2309/2406 10005KT P6SM FEW010 BKN025
      TEMPO 2309/2313 4SM BR
     FM231400 14008KT P6SM SCT010 BKN040
     FM231900 15012KT P6SM SCT010 BKN035
     FM240000 16012KT 6SM -DZ BR SCT008 BKN025=

USA.gov is the U.S. government's official web portal to all federal, state and local government web resources and services.